createdAt,value
2023-04-19T00:02:10.536Z,100056.50
2023-04-19T00:04:40.432Z,100060.75
2023-04-19T00:07:10.266Z,100051.50
2023-04-19T00:09:39.984Z,100043.88
2023-04-19T00:12:09.617Z,100040.47
2023-04-19T00:14:39.315Z,100040.56
2023-04-19T00:17:09.138Z,100043.50
2023-04-19T00:19:39.261Z,100039.31
2023-04-19T00:22:08.953Z,100035.19
2023-04-19T00:24:38.648Z,100033.69
2023-04-19T00:27:08.413Z,100036.22
2023-04-19T00:29:40.605Z,100035.41
2023-04-19T00:32:11.109Z,100046.28
2023-04-19T00:34:40.796Z,100047.34
2023-04-19T00:37:14.445Z,100044.78
2023-04-19T00:39:44.203Z,100053.34
2023-04-19T00:42:13.841Z,100042.06
2023-04-19T00:44:44.167Z,100049.69
2023-04-19T00:47:13.879Z,100049.69
2023-04-19T00:49:43.572Z,100054.44
2023-04-19T00:52:14.324Z,100047.72
2023-04-19T00:54:44.029Z,100044.50
2023-04-19T00:57:16.356Z,100053.22
2023-04-19T00:59:46.232Z,100055.41
2023-04-19T01:02:16.830Z,100045.91
2023-04-19T01:04:46.974Z,100042.44
2023-04-19T01:07:17.144Z,100041.97
2023-04-19T01:09:47.016Z,100040.56
2023-04-19T01:12:16.738Z,100037.22
2023-04-19T01:14:47.309Z,100018.06
2023-04-19T01:17:17.016Z,100014.94
2023-04-19T01:19:46.706Z,100013.91
2023-04-19T01:22:25.237Z,100005.06
2023-04-19T01:24:54.849Z,100004.75
2023-04-19T01:27:25.419Z,100005.63
2023-04-19T01:29:55.089Z,100015.13
2023-04-19T01:32:24.827Z,100015.91
2023-04-19T01:34:54.978Z,100000.81
2023-04-19T01:37:24.755Z,99999.78
2023-04-19T01:39:54.452Z,99988.81
2023-04-19T01:42:24.405Z,100003.06
2023-04-19T01:44:54.110Z,99995.19
2023-04-19T01:47:24.555Z,99993.53
2023-04-19T01:49:54.218Z,99999.47
2023-04-19T01:52:23.939Z,99981.13
2023-04-19T01:54:53.681Z,99983.75
2023-04-19T01:57:23.388Z,99979.06
2023-04-19T01:59:55.492Z,99970.00
2023-04-19T02:02:25.352Z,99971.50
2023-04-19T02:04:55.040Z,99973.81
2023-04-19T02:07:24.753Z,99977.66
2023-04-19T02:09:54.480Z,99980.50
2023-04-19T02:12:24.977Z,99978.88
2023-04-19T02:14:54.744Z,99964.75
2023-04-19T02:17:24.471Z,99957.19
2023-04-19T02:19:54.761Z,99951.59
2023-04-19T02:22:24.522Z,99941.59
2023-04-19T02:24:54.235Z,99950.22
2023-04-19T02:27:23.996Z,99951.78
2023-04-19T02:29:53.677Z,99947.38
2023-04-19T02:32:39.411Z,99948.88
2023-04-19T02:35:18.971Z,99936.66
2023-04-19T02:37:48.673Z,99930.25
2023-04-19T02:40:18.374Z,99935.06
2023-04-19T02:42:47.989Z,99941.66
2023-04-19T02:45:17.777Z,99923.84
2023-04-19T02:47:48.289Z,99920.09
2023-04-19T02:50:18.912Z,99915.41
2023-04-19T02:52:55.232Z,99910.94
2023-04-19T02:55:24.959Z,99906.72
2023-04-19T02:57:54.695Z,99901.91
2023-04-19T03:00:24.354Z,99895.56
2023-04-19T03:02:54.261Z,99893.75
2023-04-19T03:05:24.488Z,99886.88
2023-04-19T03:07:54.227Z,99879.34
2023-04-19T03:10:27.802Z,99880.34
2023-04-19T03:12:57.470Z,99884.25
2023-04-19T03:15:27.128Z,99872.03
2023-04-19T03:17:56.945Z,99877.41
2023-04-19T03:20:27.010Z,99874.50
2023-04-19T03:22:56.657Z,99866.06
2023-04-19T03:25:26.375Z,99864.97
2023-04-19T03:27:56.228Z,99866.63
2023-04-19T03:30:25.875Z,99868.09
2023-04-19T03:32:55.610Z,99867.06
2023-04-19T03:35:27.806Z,99849.75
2023-04-19T03:37:57.484Z,99839.38
2023-04-19T03:40:27.192Z,99831.09
2023-04-19T03:42:56.999Z,99807.31
2023-04-19T03:45:26.834Z,99795.78
2023-04-19T03:47:56.613Z,99781.72
2023-04-19T03:50:26.340Z,99765.81
2023-04-19T03:52:56.357Z,99757.09
2023-04-19T03:55:25.977Z,99736.13
2023-04-19T03:57:55.664Z,99741.66
2023-04-19T04:00:29.075Z,99740.16
2023-04-19T04:02:58.970Z,99733.44
2023-04-19T04:05:30.738Z,99732.88
2023-04-19T04:08:00.625Z,99738.03
2023-04-19T04:10:30.241Z,99731.19
2023-04-19T04:12:59.887Z,99726.09
2023-04-19T04:15:29.588Z,99726.31
2023-04-19T04:17:59.297Z,99722.78
2023-04-19T04:20:29.034Z,99721.59
2023-04-19T04:22:58.736Z,99724.66
2023-04-19T04:25:30.448Z,99729.53
2023-04-19T04:28:00.132Z,99726.69
2023-04-19T04:30:30.265Z,99730.88
2023-04-19T04:33:00.528Z,99729.88
2023-04-19T04:35:31.498Z,99718.91
2023-04-19T04:38:11.059Z,99714.84
2023-04-19T04:40:57.305Z,99711.59
2023-04-19T04:43:30.539Z,99695.00
2023-04-19T04:46:03.253Z,99693.47
2023-04-19T04:48:33.113Z,99688.09
2023-04-19T04:51:02.809Z,99686.22
2023-04-19T04:53:32.539Z,99688.47
2023-04-19T04:56:02.260Z,99688.84
2023-04-19T04:58:32.041Z,99691.31
2023-04-19T05:01:01.820Z,99683.09
2023-04-19T05:03:34.782Z,99675.34
2023-04-19T05:06:07.891Z,99684.28
2023-04-19T05:08:37.659Z,99670.50
2023-04-19T05:11:07.406Z,99669.56
2023-04-19T05:13:37.299Z,99670.03
2023-04-19T05:16:07.333Z,99677.00
2023-04-19T05:18:40.610Z,99669.19
2023-04-19T05:21:12.147Z,99660.66
2023-04-19T05:23:41.873Z,99661.34
2023-04-19T05:26:14.265Z,99666.13
2023-04-19T05:28:45.836Z,99657.81
2023-04-19T05:31:15.725Z,99642.75
2023-04-19T05:33:45.489Z,99631.13
2023-04-19T05:36:15.241Z,99633.44
2023-04-19T05:38:44.948Z,99627.22
2023-04-19T05:41:14.652Z,99626.00
2023-04-19T05:43:44.334Z,99613.16
2023-04-19T05:46:14.097Z,99611.88
2023-04-19T05:48:43.743Z,99605.66
2023-04-19T05:51:13.703Z,99612.97
2023-04-19T05:53:43.381Z,99598.69
2023-04-19T05:56:13.010Z,99608.22
2023-04-19T05:58:42.637Z,99598.06
2023-04-19T06:01:12.435Z,99595.97
2023-04-19T06:03:42.400Z,99592.25
2023-04-19T06:06:12.272Z,99594.16
2023-04-19T06:08:42.010Z,99594.56
2023-04-19T06:11:20.165Z,99593.72
2023-04-19T06:13:54.582Z,99592.50
2023-04-19T06:16:24.330Z,99597.06
2023-04-19T06:18:54.040Z,99589.97
2023-04-19T06:21:23.648Z,99592.91
2023-04-19T06:23:53.342Z,99590.22
2023-04-19T06:26:23.276Z,99574.25
2023-04-19T06:28:53.042Z,99570.13
2023-04-19T06:31:22.723Z,99572.22
2023-04-19T06:33:52.578Z,99571.13
2023-04-19T06:36:22.711Z,99560.22
2023-04-19T06:38:52.505Z,99565.56
2023-04-19T06:41:22.193Z,99560.59
2023-04-19T06:43:51.937Z,99558.13
2023-04-19T06:46:21.679Z,99554.19
2023-04-19T06:48:51.446Z,99555.03
2023-04-19T06:51:21.159Z,99552.34
2023-04-19T06:53:52.736Z,99549.03
2023-04-19T06:56:40.929Z,99554.84
2023-04-19T06:59:10.622Z,99553.59
2023-04-19T07:01:41.357Z,99557.16
2023-04-19T07:04:11.251Z,99552.38
2023-04-19T07:06:41.148Z,99540.72
2023-04-19T07:09:10.869Z,99534.97
2023-04-19T07:11:40.672Z,99528.56
2023-04-19T07:14:10.338Z,99531.53
2023-04-19T07:16:39.891Z,99531.75
2023-04-19T07:19:09.556Z,99530.41
2023-04-19T07:21:40.742Z,99522.56
2023-04-19T07:24:10.516Z,99514.88
2023-04-19T07:26:40.303Z,99530.19
2023-04-19T07:29:10.590Z,99530.19
2023-04-19T07:31:40.445Z,99536.00
2023-04-19T07:34:10.515Z,99530.34
2023-04-19T07:36:40.630Z,99535.91
2023-04-19T07:39:10.607Z,99537.38
2023-04-19T07:41:40.667Z,99526.41
2023-04-19T07:44:13.005Z,99524.72
2023-04-19T07:46:45.902Z,99529.63
2023-04-19T07:49:16.308Z,99547.75
2023-04-19T07:51:45.927Z,99554.53
2023-04-19T07:54:18.208Z,99546.22
2023-04-19T07:56:50.860Z,99552.19
2023-04-19T07:59:20.592Z,99549.56
2023-04-19T08:01:51.124Z,99551.22
2023-04-19T08:04:21.793Z,99551.44
2023-04-19T08:06:51.761Z,99552.22
2023-04-19T08:09:21.536Z,99548.28
2023-04-19T08:11:51.273Z,99548.91
2023-04-19T08:14:34.693Z,99545.38
2023-04-19T08:17:23.985Z,99541.25
2023-04-19T08:19:56.667Z,99548.31
2023-04-19T08:22:26.305Z,99558.03
2023-04-19T08:24:55.988Z,99561.63
2023-04-19T08:27:28.556Z,99548.31
2023-04-19T08:29:58.161Z,99540.25
2023-04-19T08:32:27.808Z,99543.47
2023-04-19T08:34:58.852Z,99540.81
2023-04-19T08:37:28.862Z,99541.00
2023-04-19T08:39:58.496Z,99549.94
2023-04-19T08:42:35.489Z,99552.81
2023-04-19T08:45:26.914Z,99554.53
2023-04-19T08:48:01.844Z,99548.75
2023-04-19T08:50:40.466Z,99556.63
2023-04-19T08:53:24.609Z,99560.56
2023-04-19T08:56:12.945Z,99549.25
2023-04-19T08:59:03.909Z,99548.59
2023-04-19T09:01:40.437Z,99556.66
2023-04-19T09:04:34.448Z,99547.53
2023-04-19T09:07:00.898Z,99545.72
2023-04-19T09:12:04.713Z,99544.66
2023-04-19T09:14:34.353Z,99547.59
2023-04-19T09:17:19.069Z,99551.16
2023-04-19T09:19:51.841Z,99551.75
2023-04-19T09:22:21.612Z,99554.69
2023-04-19T09:27:37.826Z,99558.59
2023-04-19T09:30:12.758Z,99564.41
2023-04-19T09:32:50.736Z,99569.78
2023-04-19T09:35:20.472Z,99574.53
2023-04-19T09:38:06.694Z,99571.66
2023-04-19T09:40:36.867Z,99579.09
2023-04-19T09:43:26.255Z,99580.38
2023-04-19T09:45:56.142Z,99589.03
2023-04-19T09:48:25.850Z,99591.97
2023-04-19T09:51:05.816Z,99601.47
2023-04-19T09:53:38.821Z,99601.28
2023-04-19T09:56:08.845Z,99596.72
2023-04-19T09:58:50.230Z,99596.72
2023-04-19T10:01:24.268Z,99593.41
2023-04-19T10:03:54.447Z,99599.41
2023-04-19T10:09:00.331Z,99596.09
2023-04-19T10:11:32.049Z,99600.84
2023-04-19T10:14:02.585Z,99603.16
2023-04-19T10:16:33.153Z,99600.88
2023-04-19T10:19:03.363Z,99611.88
2023-04-19T10:21:34.260Z,99613.09
2023-04-19T10:24:04.133Z,99625.53
2023-04-19T10:26:33.807Z,99635.06
2023-04-19T10:29:03.429Z,99638.16
2023-04-19T10:31:33.122Z,99640.66
2023-04-19T10:34:02.844Z,99649.53
2023-04-19T10:36:32.609Z,99650.81
2023-04-19T10:39:02.287Z,99654.72
2023-04-19T10:42:03.705Z,99667.56
2023-04-19T10:44:33.331Z,99675.25
2023-04-19T10:47:02.970Z,99680.22
2023-04-19T10:49:32.830Z,99689.72
2023-04-19T10:52:02.452Z,99701.50
2023-04-19T10:54:40.441Z,99690.16
2023-04-19T10:57:12.957Z,99690.56
2023-04-19T10:59:45.441Z,99685.59
2023-04-19T11:02:29.688Z,99678.13
2023-04-19T11:05:00.353Z,99682.88
2023-04-19T11:07:30.135Z,99682.47
2023-04-19T11:09:59.850Z,99683.91
2023-04-19T11:12:29.512Z,99682.03
2023-04-19T11:15:04.464Z,99686.81
2023-04-19T11:17:34.421Z,99684.31
2023-04-19T11:20:15.831Z,99682.84
2023-04-19T11:22:48.734Z,99684.72
2023-04-19T11:25:22.514Z,99699.22
2023-04-19T11:27:55.567Z,99709.19
2023-04-19T11:30:35.031Z,99719.94
2023-04-19T11:33:05.061Z,99722.63
2023-04-19T11:35:34.793Z,99727.59
2023-04-19T11:38:06.096Z,99730.72
2023-04-19T11:40:35.821Z,99728.44
2023-04-19T11:43:06.672Z,99720.78
2023-04-19T11:45:39.579Z,99725.75
2023-04-19T11:48:17.037Z,99723.47
2023-04-19T11:50:47.251Z,99723.47
2023-04-19T11:53:18.067Z,99738.59
2023-04-19T11:55:49.185Z,99737.34
2023-04-19T11:58:46.111Z,99739.00
2023-04-19T12:01:16.868Z,99738.38
2023-04-19T12:03:51.016Z,99737.78
2023-04-19T12:06:25.577Z,99731.13
2023-04-19T12:08:56.236Z,99728.44
2023-04-19T12:11:44.464Z,99729.88
2023-04-19T12:14:18.762Z,99738.78
2023-04-19T12:16:48.690Z,99745.84
2023-04-19T12:19:21.789Z,99754.56
2023-04-19T12:21:51.630Z,99759.09
2023-04-19T12:24:21.812Z,99762.00
2023-04-19T12:26:59.134Z,99759.50
2023-04-19T12:29:30.804Z,99752.06
2023-04-19T12:32:00.464Z,99755.56
2023-04-19T12:34:30.399Z,99752.47
2023-04-19T12:37:00.209Z,99762.00
2023-04-19T12:39:30.411Z,99753.88
2023-04-19T12:42:02.849Z,99755.56
2023-04-19T12:44:32.466Z,99761.59
2023-04-19T12:47:02.165Z,99756.56
2023-04-19T12:49:31.823Z,99761.56
2023-04-19T12:52:01.421Z,99769.03
2023-04-19T12:54:31.226Z,99766.16
2023-04-19T12:57:02.840Z,99768.63
2023-04-19T12:59:33.166Z,99766.56
2023-04-19T13:02:03.192Z,99765.53
2023-04-19T13:04:33.002Z,99774.66
2023-04-19T13:07:02.781Z,99788.94
2023-04-19T13:09:32.500Z,99795.09
2023-04-19T13:12:02.878Z,99803.03
2023-04-19T13:14:32.596Z,99810.06
2023-04-19T13:17:02.374Z,99799.28
2023-04-19T13:19:32.730Z,99809.66
2023-04-19T13:22:02.403Z,99830.09
2023-04-19T13:24:32.210Z,99830.94
2023-04-19T13:27:02.043Z,99828.44
2023-04-19T13:29:31.875Z,99832.78
2023-04-19T13:32:01.532Z,99835.47
2023-04-19T13:34:31.413Z,99841.28
2023-04-19T13:37:01.210Z,99835.69
2023-04-19T13:39:30.844Z,99830.94
2023-04-19T13:42:00.574Z,99828.66
2023-04-19T13:44:30.981Z,99835.09
2023-04-19T13:47:00.659Z,99826.59
2023-04-19T13:49:30.397Z,99818.09
2023-04-19T13:52:00.047Z,99813.13
2023-04-19T13:54:29.721Z,99807.34
2023-04-19T13:56:59.696Z,99809.22
2023-04-19T13:59:29.610Z,99820.78
2023-04-19T14:01:59.307Z,99806.06
2023-04-19T14:04:29.215Z,99802.78
2023-04-19T14:06:58.910Z,99796.75
2023-04-19T14:09:28.549Z,99796.56
2023-04-19T14:11:58.269Z,99804.84
2023-04-19T14:14:29.199Z,99810.25
2023-04-19T14:17:00.493Z,99808.78
2023-04-19T14:19:30.136Z,99815.63
2023-04-19T14:21:59.809Z,99813.78
2023-04-19T14:24:29.464Z,99821.88
2023-04-19T14:27:10.254Z,99830.94
2023-04-19T14:29:41.321Z,99836.34
2023-04-19T14:34:46.578Z,99837.81
2023-04-19T14:37:16.239Z,99847.09
2023-04-19T14:39:47.479Z,99853.94
2023-04-19T14:42:17.143Z,99864.28
2023-04-19T14:44:47.989Z,99855.81
2023-04-19T14:47:17.721Z,99856.88
2023-04-19T14:49:47.459Z,99857.03
2023-04-19T14:52:17.391Z,99860.56
2023-04-19T14:54:47.188Z,99869.28
2023-04-19T14:57:16.929Z,99870.31
2023-04-19T14:59:46.630Z,99880.06
2023-04-19T15:02:16.448Z,99879.22
2023-04-19T15:04:46.316Z,99886.63
2023-04-19T15:07:16.033Z,99877.53
2023-04-19T15:09:45.717Z,99875.25
2023-04-19T15:12:15.403Z,99875.47
2023-04-19T15:14:45.069Z,99875.72
2023-04-19T15:17:14.748Z,99877.56
2023-04-19T15:19:45.818Z,99867.41
2023-04-19T15:22:15.550Z,99863.88
2023-04-19T15:24:45.229Z,99862.41
2023-04-19T15:27:14.878Z,99873.19
2023-04-19T15:29:44.497Z,99876.72
2023-04-19T15:32:14.157Z,99876.28
2023-04-19T15:34:43.778Z,99883.13
2023-04-19T15:37:13.420Z,99884.97
2023-04-19T15:39:43.143Z,99894.94
2023-04-19T15:42:12.795Z,99900.09
2023-04-19T15:44:43.949Z,99887.88
2023-04-19T15:47:13.793Z,99888.31
2023-04-19T15:49:43.512Z,99886.03
2023-04-19T15:52:13.150Z,99887.69
2023-04-19T15:54:42.908Z,99876.31
2023-04-19T15:57:12.587Z,99870.31
2023-04-19T15:59:42.217Z,99863.66
2023-04-19T16:02:11.986Z,99873.19
2023-04-19T16:04:41.903Z,99870.09
2023-04-19T16:07:11.608Z,99868.22
2023-04-19T16:09:41.339Z,99868.00
2023-04-19T16:12:11.039Z,99871.53
2023-04-19T16:14:40.706Z,99880.63
2023-04-19T16:17:10.330Z,99873.19
2023-04-19T16:19:39.967Z,99872.78
2023-04-19T16:22:09.650Z,99874.44
2023-04-19T16:24:39.320Z,99884.38
2023-04-19T16:27:08.983Z,99880.63
2023-04-19T16:29:39.949Z,99873.81
2023-04-19T16:32:09.767Z,99873.38
2023-04-19T16:34:39.436Z,99863.06
2023-04-19T16:37:09.028Z,99862.00
2023-04-19T16:39:38.652Z,99865.53
2023-04-19T16:42:08.347Z,99861.56
2023-04-19T16:44:37.996Z,99868.00
2023-04-19T16:47:07.706Z,99869.03
2023-04-19T16:49:37.359Z,99857.88
2023-04-19T16:52:07.076Z,99860.13
2023-04-19T16:54:37.492Z,99856.41
2023-04-19T16:57:07.323Z,99860.13
2023-04-19T16:59:37.063Z,99860.97
2023-04-19T17:02:09.065Z,99862.19
2023-04-19T17:04:39.122Z,99857.03
2023-04-19T17:07:10.155Z,99862.63
2023-04-19T17:09:39.838Z,99859.72
2023-04-19T17:12:09.571Z,99858.06
2023-04-19T17:14:39.251Z,99860.97
2023-04-19T17:17:08.908Z,99873.38
2023-04-19T17:19:38.935Z,99865.31
2023-04-19T17:22:08.694Z,99874.84
2023-04-19T17:24:38.303Z,99877.94
2023-04-19T17:27:08.002Z,99870.91
2023-04-19T17:29:37.799Z,99873.81
2023-04-19T17:32:07.676Z,99883.53
2023-04-19T17:34:37.315Z,99877.13
2023-04-19T17:37:07.898Z,99875.47
2023-04-19T17:39:37.606Z,99877.72
2023-04-19T17:42:07.282Z,99871.31
2023-04-19T17:44:37.232Z,99874.44
2023-04-19T17:47:06.983Z,99876.50
2023-04-19T17:49:36.696Z,99890.59
2023-04-19T17:52:06.493Z,99888.09
2023-04-19T17:54:36.159Z,99887.28
2023-04-19T17:57:05.880Z,99882.28
2023-04-19T17:59:35.553Z,99872.34
2023-04-19T18:02:06.364Z,99880.22
2023-04-19T18:04:37.342Z,99877.13
2023-04-19T18:07:07.645Z,99879.81
2023-04-19T18:09:37.283Z,99873.59
2023-04-19T18:12:07.279Z,99855.59
2023-04-19T18:14:37.316Z,99870.47
2023-04-19T18:17:07.047Z,99875.03
2023-04-19T18:19:36.732Z,99861.97
2023-04-19T18:22:06.372Z,99862.19
2023-04-19T18:24:36.065Z,99868.63
2023-04-19T18:27:07.047Z,99880.22
2023-04-19T18:29:36.812Z,99883.34
2023-04-19T18:32:06.959Z,99871.72
2023-04-19T18:34:36.651Z,99881.88
2023-04-19T18:37:16.793Z,99885.56
2023-04-19T18:39:46.752Z,99891.81
2023-04-19T18:42:16.441Z,99888.91
2023-04-19T18:44:53.818Z,99891.59
2023-04-19T18:47:24.651Z,99887.25
2023-04-19T18:50:04.598Z,99884.13
2023-04-19T18:52:37.921Z,99893.84
2023-04-19T18:55:08.523Z,99891.16
2023-04-19T18:57:40.326Z,99899.06
2023-04-19T19:00:13.425Z,99900.28
2023-04-19T19:02:43.968Z,99898.41
2023-04-19T19:05:15.061Z,99901.72
2023-04-19T19:07:45.471Z,99908.78
2023-04-19T19:10:20.976Z,99899.84
2023-04-19T19:12:52.432Z,99912.47
2023-04-19T19:15:22.078Z,99917.69
2023-04-19T19:17:51.789Z,99908.94
2023-04-19T19:20:22.042Z,99914.78
2023-04-19T19:22:51.811Z,99908.78
2023-04-19T19:25:21.487Z,99913.50
2023-04-19T19:28:06.429Z,99916.00
2023-04-19T19:30:41.103Z,99915.16
2023-04-19T19:33:10.925Z,99912.69
2023-04-19T19:35:40.909Z,99913.94
2023-04-19T19:38:10.584Z,99916.63
2023-04-19T19:41:05.429Z,99913.28
2023-04-19T19:43:30.030Z,99913.50
2023-04-19T19:45:59.754Z,99902.91
2023-04-19T19:48:30.405Z,99910.16
2023-04-19T19:53:33.999Z,99901.91
2023-04-19T19:56:04.326Z,99904.78
2023-04-19T19:58:49.422Z,99896.53
2023-04-19T20:01:22.051Z,99902.53
2023-04-19T20:03:53.045Z,99899.91
2023-04-19T20:08:57.731Z,99885.91
2023-04-19T20:11:27.895Z,99896.47
2023-04-19T20:13:57.656Z,99902.91
2023-04-19T20:16:27.411Z,99893.34
2023-04-19T20:18:59.258Z,99902.72
2023-04-19T20:21:29.576Z,99898.97
2023-04-19T20:23:59.241Z,99900.22
2023-04-19T20:26:28.940Z,99901.44
2023-04-19T20:28:58.602Z,99893.97
2023-04-19T20:31:28.366Z,99892.31
2023-04-19T20:33:58.020Z,99893.16
2023-04-19T20:36:29.142Z,99880.97
2023-04-19T20:39:00.217Z,99875.56
2023-04-19T20:41:29.922Z,99882.84
2023-04-19T20:44:01.263Z,99881.78
2023-04-19T20:46:30.990Z,99894.81
2023-04-19T20:49:00.786Z,99893.56
2023-04-19T20:51:30.471Z,99894.56
2023-04-19T20:54:00.366Z,99898.94
2023-04-19T20:56:30.066Z,99902.00
2023-04-19T20:58:59.758Z,99906.78
2023-04-19T21:01:29.536Z,99902.84
2023-04-19T21:03:59.479Z,99904.47
2023-04-19T21:06:29.338Z,99915.66
2023-04-19T21:09:00.797Z,99902.84
2023-04-19T21:11:30.486Z,99920.00
2023-04-19T21:14:00.191Z,99922.00
2023-04-19T21:16:29.853Z,99917.09
2023-04-19T21:18:59.589Z,99912.97
2023-04-19T21:21:30.554Z,99918.34
2023-04-19T21:24:01.911Z,99921.88
2023-04-19T21:26:31.713Z,99924.31
2023-04-19T21:29:01.362Z,99921.66
2023-04-19T21:31:31.033Z,99919.56
2023-04-19T21:34:00.704Z,99918.97
2023-04-19T21:36:30.563Z,99914.59
2023-04-19T21:39:00.202Z,99927.25
2023-04-19T21:41:29.814Z,99923.13
2023-04-19T21:43:59.395Z,99926.22
2023-04-19T21:46:29.032Z,99935.50
2023-04-19T21:48:58.661Z,99945.16
2023-04-19T21:51:29.151Z,99944.41
2023-04-19T21:53:58.844Z,99947.28
2023-04-19T21:56:28.553Z,99945.63
2023-04-19T21:58:58.255Z,99957.16
2023-04-19T22:01:29.170Z,99949.72
2023-04-19T22:04:00.297Z,99953.44
2023-04-19T22:06:30.005Z,99945.00
2023-04-19T22:09:00.931Z,99943.13
2023-04-19T22:11:35.448Z,99938.72
2023-04-19T22:14:05.283Z,99933.41
2023-04-19T22:16:35.094Z,99934.41
2023-04-19T22:19:05.066Z,99935.69
2023-04-19T22:21:34.685Z,99944.16
2023-04-19T22:24:05.205Z,99949.72
2023-04-19T22:26:35.973Z,99949.97
2023-04-19T22:29:05.665Z,99953.28
2023-04-19T22:31:35.423Z,99939.28
2023-04-19T22:34:05.083Z,99956.84
2023-04-19T22:36:34.712Z,99958.13
2023-04-19T22:39:04.690Z,99958.34
2023-04-19T22:41:35.400Z,99955.06
2023-04-19T22:44:05.357Z,99943.53
2023-04-19T22:46:35.107Z,99956.16
2023-04-19T22:49:05.009Z,99963.41
2023-04-19T22:51:35.597Z,99961.53
2023-04-19T22:54:05.854Z,99972.31
2023-04-19T22:56:35.487Z,99970.88
2023-04-19T22:59:05.150Z,99965.94
2023-04-19T23:01:34.892Z,99966.56
2023-04-19T23:04:04.654Z,99956.41
2023-04-19T23:06:34.562Z,99961.81
2023-04-19T23:09:04.485Z,99967.81
2023-04-19T23:11:34.134Z,99959.13
2023-04-19T23:14:04.240Z,99962.44
2023-04-19T23:16:34.890Z,99955.66
2023-04-19T23:19:04.587Z,99960.81
2023-04-19T23:21:34.296Z,99973.28
2023-04-19T23:24:04.002Z,99975.47
2023-04-19T23:26:33.670Z,99974.06
2023-04-19T23:29:03.311Z,99970.16
2023-04-19T23:31:35.743Z,99974.53
2023-04-19T23:34:05.495Z,99979.06
2023-04-19T23:36:35.186Z,99982.72
2023-04-19T23:39:04.978Z,99979.28
2023-04-19T23:41:34.640Z,99977.94
2023-04-19T23:44:04.336Z,99982.34
2023-04-19T23:46:33.972Z,99983.38
2023-04-19T23:49:03.638Z,99983.00
2023-04-19T23:51:34.396Z,99987.72
2023-04-19T23:54:04.020Z,99986.06
2023-04-19T23:56:33.670Z,99981.13
2023-04-19T23:59:03.327Z,99975.09
